| time (UTC) | temp C | wind direction | speed KPH | gust KPH | rain 1hr cm | rain 24hr cm | rain mn cm | humidity % | barometer mb |
| 20260902093013 | 28 | 68 | 0.0 | 0.0 | 0.00 | 0.00 | 0.00 | 47 | 1001.9 |
| 20260902092511 | 31 | 68 | 0.0 | 0.0 | 0.00 | 0.00 | 0.00 | 44 | 1002.0 |
| 20260902092014 | 33 | 112 | 0.0 | 0.0 | 0.00 | 0.00 | 0.00 | 43 | 1001.9 |
| 20260902091512 | 33 | 112 | 0.0 | 0.0 | 0.00 | 0.00 | 0.00 | 44 | 1001.8 |
| 20260902091013 | 33 | 112 | 0.0 | 0.0 | 0.00 | 0.00 | 0.00 | 45 | 1001.9 |
| 20260902090512 | 32 | 112 | 0.0 | 0.0 | 0.00 | 0.00 | 0.00 | 47 | 1002.0 |
| 20260902090011 | 31 | 112 | 0.0 | 0.0 | 0.00 | 0.00 | 0.00 | 49 | 1002.0 |
| 20260902085512 | 30 | 112 | 0.0 | 0.0 | 0.00 | 0.00 | 0.00 | 51 | 1002.0 |
| 20260902085015 | 30 | 68 | 0.0 | 0.0 | 0.00 | 0.00 | 0.00 | 52 | 1002.0 |
| 20260902084512 | 28 | 68 | 0.0 | 0.0 | 0.00 | 0.00 | 0.00 | 54 | 1001.9 |
| 20260902084013 | 27 | 68 | 0.0 | 0.0 | 0.00 | 0.00 | 0.00 | 56 | 1001.8 |
| 20260902083511 | 27 | 68 | 0.0 | 0.0 | 0.00 | 0.00 | 0.00 | 58 | 1001.8 |
| 20260902083014 | 26 | 68 | 0.0 | 0.0 | 0.00 | 0.00 | 0.00 | 59 | 1001.9 |
| 20260902082511 | 26 | 68 | 0.0 | 0.0 | 0.00 | 0.00 | 0.00 | 60 | 1001.9 |
| 20260902082014 | 25 | 68 | 0.0 | 0.0 | 0.00 | 0.00 | 0.00 | 61 | 1001.9 |
| 20260902081511 | 25 | 68 | 0.0 | 0.0 | 0.00 | 0.00 | 0.00 | 61 | 1001.9 |
| 20260902081013 | 25 | 68 | 0.0 | 0.0 | 0.00 | 0.00 | 0.00 | 61 | 1002.0 |
| 20260902080512 | 25 | 68 | 0.0 | 0.0 | 0.00 | 0.00 | 0.00 | 62 | 1002.0 |
| 20260902080012 | 25 | 68 | 0.0 | 0.0 | 0.00 | 0.00 | 0.00 | 62 | 1002.0 |
| 20260902075511 | 25 | 68 | 0.0 | 0.0 | 0.00 | 0.00 | 0.00 | 63 | 1002.0 |
| 20260902075013 | 25 | 68 | 0.0 | 0.0 | 0.00 | 0.00 | 0.00 | 62 | 1002.1 |
| 20260902074513 | 25 | 68 | 0.0 | 0.0 | 0.00 | 0.00 | 0.00 | 64 | 1002.1 |
| 20260902074013 | 24 | 68 | 0.0 | 0.0 | 0.00 | 0.00 | 0.00 | 64 | 1002.0 |
| 20260902073511 | 24 | 68 | 0.0 | 0.0 | 0.00 | 0.00 | 0.00 | 65 | 1002.1 |
| 20260902073014 | 24 | 68 | 0.0 | 0.0 | 0.00 | 0.00 | 0.00 | 65 | 1002.2 |
| 20260902072512 | 24 | 45 | 0.0 | 0.0 | 0.00 | 0.00 | 0.00 | 65 | 1002.1 |
| 20260902072013 | 24 | 45 | 0.0 | 0.0 | 0.00 | 0.00 | 0.00 | 65 | 1002.0 |
| 20260902071512 | 23 | 45 | 0.0 | 0.0 | 0.00 | 0.00 | 0.00 | 66 | 1002.0 |
| 20260902071014 | 23 | 45 | 0.0 | 0.0 | 0.00 | 0.00 | 0.00 | 66 | 1002.0 |
| 20260902070511 | 23 | 45 | 0.0 | 0.0 | 0.00 | 0.00 | 0.00 | 68 | 1002.0 |
| 20260902070011 | 23 | 45 | 0.0 | 0.0 | 0.00 | 0.00 | 0.00 | 69 | 1001.9 |
| 20260902065511 | 22 | 45 | 0.0 | 0.0 | 0.00 | 0.00 | 0.00 | 70 | 1001.8 |
| 20260902065014 | 22 | 45 | 0.0 | 0.0 | 0.00 | 0.00 | 0.00 | 71 | 1001.8 |
| 20260902064511 | 21 | 45 | 0.0 | 0.0 | 0.00 | 0.00 | 0.00 | 73 | 1001.8 |
| 20260902064015 | 20 | 45 | 0.0 | 0.0 | 0.00 | 0.00 | 0.00 | 75 | 1001.9 |
| 20260902063510 | 20 | 45 | 0.0 | 0.0 | 0.00 | 0.00 | 0.00 | 77 | 1001.8 |
| 20260902063014 | 19 | 45 | 0.0 | 0.0 | 0.00 | 0.00 | 0.00 | 80 | 1001.6 |
| 20260902062512 | 18 | 45 | 0.0 | 0.0 | 0.00 | 0.00 | 0.00 | 82 | 1001.6 |
| 20260902062013 | 17 | 45 | 0.0 | 0.0 | 0.00 | 0.00 | 0.00 | 84 | 1001.6 |
| 20260902061511 | 16 | 45 | 0.0 | 0.0 | 0.00 | 0.00 | 0.00 | 85 | 1001.7 |
| 20260902061014 | 15 | 45 | 0.0 | 0.0 | 0.00 | 0.00 | 0.00 | 85 | 1001.8 |
| 20260902060511 | 15 | 45 | 0.0 | 0.0 | 0.00 | 0.00 | 0.00 | 85 | 1001.6 |
| 20260902060011 | 15 | 45 | 0.0 | 0.0 | 0.00 | 0.00 | 0.00 | 85 | 1001.6 |
| 20260902055511 | 15 | 45 | 0.0 | 0.0 | 0.00 | 0.00 | 0.00 | 85 | 1001.8 |
| 20260902055013 | 15 | 45 | 0.0 | 0.0 | 0.00 | 0.00 | 0.00 | 85 | 1001.7 |
| 20260902054511 | 15 | 45 | 0.0 | 0.0 | 0.00 | 0.00 | 0.00 | 85 | 1001.7 |
| 20260902054014 | 15 | 45 | 0.0 | 0.0 | 0.00 | 0.00 | 0.00 | 85 | 1001.7 |
| 20260902053511 | 15 | 37 | 0.0 | 0.0 | 0.00 | 0.00 | 0.00 | 85 | 1001.9 |
| 20260902053013 | 15 | 45 | 0.0 | 0.0 | 0.00 | 0.00 | 0.00 | 85 | 1001.9 |
| 20260902052511 | 15 | 45 | 0.0 | 0.0 | 0.00 | 0.00 | 0.00 | 85 | 1001.8 |
| 20260902052013 | 15 | 45 | 0.0 | 0.0 | 0.00 | 0.00 | 0.00 | 85 | 1001.7 |
| 20260902051511 | 15 | 45 | 0.0 | 0.0 | 0.00 | 0.00 | 0.00 | 85 | 1001.6 |
| 20260902051013 | 15 | 45 | 0.0 | 0.0 | 0.00 | 0.00 | 0.00 | 85 | 1001.6 |
| 20260902050511 | 15 | 45 | 0.0 | 0.0 | 0.00 | 0.00 | 0.00 | 85 | 1001.5 |
| 20260902050011 | 15 | 45 | 0.0 | 0.0 | 0.00 | 0.00 | 0.00 | 85 | 1001.5 |
| 20260902045511 | 15 | 45 | 0.0 | 0.0 | 0.00 | 0.00 | 0.00 | 85 | 1001.5 |
| 20260902045013 | 15 | 45 | 0.0 | 0.0 | 0.00 | 0.00 | 0.00 | 85 | 1001.5 |
| 20260902044511 | 15 | 45 | 0.0 | 0.0 | 0.00 | 0.00 | 0.00 | 85 | 1001.4 |
| 20260902044013 | 15 | 45 | 0.0 | 0.0 | 0.00 | 0.00 | 0.00 | 85 | 1001.5 |
| 20260902043510 | 15 | 45 | 0.0 | 0.0 | 0.00 | 0.00 | 0.00 | 85 | 1001.5 |
| 20260902043013 | 15 | 45 | 0.0 | 0.0 | 0.00 | 0.00 | 0.00 | 85 | 1001.6 |
| 20260902042511 | 15 | 45 | 0.0 | 0.0 | 0.00 | 0.00 | 0.00 | 85 | 1001.5 |
| 20260902042014 | 15 | 45 | 0.0 | 0.0 | 0.00 | 0.00 | 0.00 | 84 | 1001.6 |
| 20260902041511 | 15 | 45 | 0.0 | 0.0 | 0.00 | 0.00 | 0.00 | 84 | 1001.5 |
| 20260902041013 | 15 | 45 | 0.0 | 0.0 | 0.00 | 0.00 | 0.00 | 84 | 1001.5 |
| 20260902040511 | 15 | 45 | 0.0 | 0.0 | 0.00 | 0.00 | 0.00 | 84 | 1001.6 |
| 20260902040011 | 15 | 45 | 0.0 | 0.0 | 0.00 | 0.00 | 0.00 | 84 | 1001.4 |
| 20260902035511 | 15 | 45 | 0.0 | 0.0 | 0.00 | 0.00 | 0.00 | 84 | 1001.4 |
| 20260902035014 | 15 | 45 | 0.0 | 0.0 | 0.00 | 0.00 | 0.00 | 84 | 1001.5 |
| 20260902034510 | 16 | 45 | 0.0 | 0.0 | 0.00 | 0.00 | 0.00 | 84 | 1001.5 |
| 20260902034013 | 16 | 45 | 0.0 | 0.0 | 0.00 | 0.00 | 0.00 | 84 | 1001.5 |
| 20260902033510 | 16 | 45 | 0.0 | 0.0 | 0.00 | 0.00 | 0.00 | 84 | 1001.4 |
| 20260902033013 | 16 | 45 | 0.0 | 0.0 | 0.00 | 0.00 | 0.00 | 84 | 1001.4 |
| 20260902032510 | 16 | 45 | 0.0 | 0.0 | 0.00 | 0.00 | 0.00 | 84 | 1001.5 |
| 20260902032013 | 16 | 45 | 0.0 | 0.0 | 0.00 | 0.00 | 0.00 | 84 | 1001.5 |
| 20260902031511 | 16 | 45 | 0.0 | 0.0 | 0.00 | 0.00 | 0.00 | 84 | 1001.4 |
| 20260902031012 | 16 | 45 | 0.0 | 0.0 | 0.00 | 0.00 | 0.00 | 83 | 1001.4 |
| 20260902030511 | 16 | 45 | 0.0 | 0.0 | 0.00 | 0.00 | 0.00 | 84 | 1001.5 |
| 20260902030011 | 16 | 45 | 0.0 | 0.0 | 0.00 | 0.00 | 0.00 | 83 | 1001.4 |
| 20260902025511 | 16 | 45 | 0.0 | 0.0 | 0.00 | 0.00 | 0.00 | 83 | 1001.6 |
| 20260902025013 | 16 | 45 | 0.0 | 0.0 | 0.00 | 0.00 | 0.00 | 83 | 1001.5 |
| 20260902024511 | 16 | 45 | 0.0 | 0.0 | 0.00 | 0.00 | 0.00 | 83 | 1001.6 |
| 20260902024013 | 16 | 45 | 0.0 | 0.0 | 0.00 | 0.00 | 0.00 | 83 | 1001.6 |
| 20260902023511 | 16 | 45 | 0.0 | 0.0 | 0.00 | 0.00 | 0.00 | 83 | 1001.5 |
| 20260902023013 | 16 | 45 | 0.0 | 0.0 | 0.00 | 0.00 | 0.00 | 83 | 1001.4 |
| 20260902022511 | 16 | 45 | 0.0 | 0.0 | 0.00 | 0.00 | 0.00 | 83 | 1001.3 |
| 20260902022013 | 16 | 45 | 0.0 | 0.0 | 0.00 | 0.00 | 0.00 | 82 | 1001.3 |
| 20260902021511 | 16 | 45 | 0.0 | 0.0 | 0.00 | 0.00 | 0.00 | 82 | 1001.4 |
| 20260902021013 | 16 | 45 | 0.0 | 0.0 | 0.00 | 0.00 | 0.00 | 82 | 1001.4 |
| 20260902020510 | 16 | 45 | 0.0 | 0.0 | 0.00 | 0.00 | 0.00 | 82 | 1001.3 |
| 20260902020010 | 16 | 45 | 0.0 | 0.0 | 0.00 | 0.00 | 0.00 | 82 | 1001.4 |
| 20260902015511 | 16 | 45 | 0.0 | 0.0 | 0.00 | 0.00 | 0.00 | 82 | 1001.4 |
| 20260902015013 | 17 | 45 | 0.0 | 0.0 | 0.00 | 0.00 | 0.00 | 82 | 1001.5 |
| 20260902014511 | 17 | 45 | 0.0 | 0.0 | 0.00 | 0.00 | 0.00 | 82 | 1001.4 |
| 20260902014013 | 17 | 45 | 0.0 | 0.0 | 0.00 | 0.00 | 0.00 | 82 | 1001.5 |
| 20260902013511 | 17 | 45 | 0.0 | 0.0 | 0.00 | 0.00 | 0.00 | 82 | 1001.5 |
| 20260902013012 | 17 | 45 | 0.0 | 0.0 | 0.00 | 0.00 | 0.00 | 81 | 1001.3 |
| 20260902012510 | 17 | 45 | 0.0 | 0.0 | 0.00 | 0.00 | 0.00 | 81 | 1001.4 |
| 20260902012013 | 17 | 45 | 0.0 | 0.0 | 0.00 | 0.00 | 0.00 | 81 | 1001.3 |
| 20260902011510 | 17 | 45 | 0.0 | 0.0 | 0.00 | 0.00 | 0.00 | 80 | 1001.2 |
| 20260902011013 | 17 | 45 | 0.0 | 0.0 | 0.00 | 0.00 | 0.00 | 80 | 1001.1 |
| 20260902010511 | 17 | 45 | 0.0 | 0.0 | 0.00 | 0.00 | 0.00 | 80 | 1001.3 |
| 20260902010010 | 17 | 45 | 0.0 | 0.0 | 0.00 | 0.00 | 0.00 | 80 | 1001.3 |
| 20260902005511 | 17 | 45 | 0.0 | 0.0 | 0.00 | 0.00 | 0.00 | 80 | 1001.3 |
| 20260902005013 | 17 | 45 | 0.0 | 0.0 | 0.00 | 0.00 | 0.00 | 79 | 1001.3 |
| 20260902004511 | 17 | 45 | 0.0 | 0.0 | 0.00 | 0.00 | 0.00 | 79 | 1001.4 |
| 20260902004017 | 18 | 45 | 0.0 | 0.0 | 0.00 | 0.00 | 0.00 | 79 | 1001.4 |
| 20260902003510 | 18 | 45 | 0.0 | 0.0 | 0.00 | 0.00 | 0.00 | 79 | 1001.4 |
| 20260902003014 | 18 | 45 | 0.0 | 0.0 | 0.00 | 0.00 | 0.00 | 79 | 1001.4 |
| 20260902002510 | 18 | 45 | 0.0 | 0.0 | 0.00 | 0.00 | 0.00 | 78 | 1001.4 |
| 20260902002013 | 18 | 45 | 0.0 | 0.0 | 0.00 | 0.00 | 0.00 | 78 | 1001.3 |
| 20260902001510 | 18 | 45 | 0.0 | 0.0 | 0.00 | 0.00 | 0.00 | 78 | 1001.2 |
| 20260902001012 | 18 | 45 | 0.0 | 0.0 | 0.00 | 0.00 | 0.00 | 77 | 1001.5 |
| 20260902000511 | 18 | 45 | 0.0 | 0.0 | 0.00 | 0.00 | 0.00 | 77 | 1001.5 |
| 20260902000011 | 18 | 45 | 0.0 | 0.0 | 0.00 | 0.00 | 0.00 | 77 | 1001.5 |
| 20260901235510 | 18 | 45 | 0.0 | 0.0 | 0.00 | 0.00 | 0.00 | 77 | 1001.5 |
| 20260901235013 | 19 | 45 | 0.0 | 0.0 | 0.00 | 0.00 | 0.00 | 76 | 1001.4 |
| 20260901234511 | 19 | 45 | 0.0 | 0.0 | 0.00 | 0.00 | 0.00 | 76 | 1001.4 |
| 20260901234012 | 19 | 45 | 0.0 | 0.0 | 0.00 | 0.00 | 0.00 | 75 | 1001.3 |
| 20260901233510 | 19 | 45 | 0.0 | 0.0 | 0.00 | 0.00 | 0.00 | 75 | 1001.3 |
| 20260901233014 | 20 | 45 | 0.0 | 0.0 | 0.00 | 0.00 | 0.00 | 75 | 1001.2 |
| 20260901232511 | 20 | 45 | 0.0 | 0.0 | 0.00 | 0.00 | 0.00 | 75 | 1001.2 |
| 20260901232014 | 20 | 45 | 0.0 | 0.0 | 0.00 | 0.00 | 0.00 | 75 | 1001.2 |
| 20260901231510 | 20 | 45 | 0.0 | 0.0 | 0.00 | 0.00 | 0.00 | 75 | 1001.3 |
| 20260901231013 | 20 | 45 | 0.0 | 0.0 | 0.00 | 0.00 | 0.00 | 75 | 1001.1 |
| 20260901230510 | 20 | 45 | 0.0 | 0.0 | 0.00 | 0.00 | 0.00 | 75 | 1001.2 |
| 20260901225510 | 20 | 45 | 0.0 | 0.0 | 0.00 | 0.00 | 0.00 | 75 | 1001.1 |
| 20260901225013 | 20 | 45 | 0.0 | 0.0 | 0.00 | 0.00 | 0.00 | 75 | 1001.1 |
| 20260901224510 | 20 | 45 | 0.0 | 0.0 | 0.00 | 0.00 | 0.00 | 75 | 1001.1 |
| 20260901224012 | 20 | 45 | 0.0 | 0.0 | 0.00 | 0.00 | 0.00 | 75 | 1001.1 |
| 20260901223510 | 20 | 45 | 0.0 | 0.0 | 0.00 | 0.00 | 0.00 | 75 | 1001.1 |
| 20260901223013 | 20 | 45 | 0.0 | 0.0 | 0.00 | 0.00 | 0.00 | 74 | 1001.2 |
| 20260901222510 | 20 | 45 | 0.0 | 0.0 | 0.00 | 0.00 | 0.00 | 74 | 1001.1 |
| 20260901222013 | 20 | 45 | 0.0 | 0.0 | 0.00 | 0.00 | 0.00 | 74 | 1001.1 |
| 20260901221510 | 20 | 45 | 0.0 | 0.0 | 0.00 | 0.00 | 0.00 | 73 | 1001.0 |
| 20260901221013 | 20 | 45 | 0.0 | 0.0 | 0.00 | 0.00 | 0.00 | 73 | 1000.9 |
| 20260901220510 | 20 | 45 | 0.0 | 0.0 | 0.00 | 0.00 | 0.00 | 73 | 1001.0 |
| 20260901220010 | 20 | 45 | 0.0 | 0.0 | 0.00 | 0.00 | 0.00 | 73 | 1001.1 |
| 20260901215510 | 20 | 45 | 0.0 | 0.0 | 0.00 | 0.00 | 0.00 | 73 | 1001.2 |
| 20260901215012 | 20 | 45 | 0.0 | 0.0 | 0.00 | 0.00 | 0.00 | 73 | 1001.2 |
| 20260901214510 | 20 | 45 | 0.0 | 0.0 | 0.00 | 0.00 | 0.00 | 73 | 1001.3 |
| 20260901214013 | 20 | 45 | 0.0 | 0.0 | 0.00 | 0.00 | 0.00 | 73 | 1001.3 |
| 20260901213510 | 20 | 45 | 0.0 | 0.0 | 0.00 | 0.00 | 0.00 | 73 | 1001.2 |
| 20260901213012 | 20 | 45 | 0.0 | 0.0 | 0.00 | 0.00 | 0.00 | 73 | 1001.3 |
| 20260901212510 | 20 | 45 | 0.0 | 0.0 | 0.00 | 0.00 | 0.00 | 72 | 1001.4 |
| 20260901212013 | 20 | 45 | 0.0 | 0.0 | 0.00 | 0.00 | 0.00 | 72 | 1001.5 |
| 20260901211510 | 20 | 45 | 0.0 | 0.0 | 0.00 | 0.00 | 0.00 | 72 | 1001.5 |
| 20260901211012 | 20 | 45 | 0.0 | 0.0 | 0.00 | 0.00 | 0.00 | 72 | 1001.5 |
| 20260901210511 | 20 | 45 | 0.0 | 0.0 | 0.00 | 0.00 | 0.00 | 72 | 1001.5 |
| 20260901210011 | 20 | 45 | 0.0 | 0.0 | 0.00 | 0.00 | 0.00 | 72 | 1001.5 |
| 20260901205510 | 20 | 45 | 0.0 | 0.0 | 0.00 | 0.00 | 0.00 | 71 | 1001.5 |
| 20260901205013 | 20 | 45 | 0.0 | 0.0 | 0.00 | 0.00 | 0.00 | 71 | 1001.5 |
| 20260901204510 | 20 | 45 | 0.0 | 0.0 | 0.00 | 0.00 | 0.00 | 71 | 1001.4 |
| 20260901204012 | 20 | 45 | 0.0 | 0.0 | 0.00 | 0.00 | 0.00 | 71 | 1001.5 |
| 20260901203510 | 20 | 45 | 0.0 | 0.0 | 0.00 | 0.00 | 0.00 | 70 | 1001.4 |
| 20260901203013 | 20 | 45 | 0.0 | 0.0 | 0.00 | 0.00 | 0.00 | 70 | 1001.4 |
| 20260901202510 | 20 | 45 | 0.0 | 0.0 | 0.00 | 0.00 | 0.00 | 70 | 1001.4 |
| 20260901202012 | 21 | 49 | 0.0 | 0.0 | 0.00 | 0.00 | 0.00 | 70 | 1001.3 |
| 20260901201510 | 21 | 135 | 0.0 | 0.0 | 0.00 | 0.00 | 0.00 | 70 | 1001.2 |
| 20260901201012 | 21 | 158 | 0.0 | 0.0 | 0.00 | 0.00 | 0.00 | 70 | 1001.1 |
| 20260901200510 | 21 | 158 | 0.0 | 0.0 | 0.00 | 0.00 | 0.00 | 70 | 1001.1 |
| 20260901200010 | 21 | 156 | 0.0 | 0.0 | 0.00 | 0.00 | 0.00 | 70 | 1000.9 |
| 20260901195509 | 21 | 315 | 0.0 | 0.0 | 0.00 | 0.00 | 0.00 | 69 | 1001.0 |
| 20260901195012 | 21 | 338 | 0.0 | 0.0 | 0.00 | 0.00 | 0.00 | 69 | 1000.7 |
| 20260901194510 | 21 | 158 | 0.0 | 0.0 | 0.00 | 0.00 | 0.00 | 69 | 1000.9 |
| 20260901194013 | 21 | 180 | 0.0 | 0.0 | 0.00 | 0.00 | 0.00 | 69 | 1000.8 |
| 20260901193510 | 21 | 158 | 0.0 | 0.0 | 0.00 | 0.00 | 0.00 | 69 | 1000.7 |
| 20260901193012 | 21 | 158 | 0.0 | 0.0 | 0.00 | 0.00 | 0.00 | 69 | 1000.6 |
| 20260901192510 | 21 | 158 | 0.0 | 0.0 | 0.00 | 0.00 | 0.00 | 69 | 1000.6 |
| 20260901192012 | 22 | 158 | 0.0 | 0.0 | 0.00 | 0.00 | 0.00 | 69 | 1000.5 |
| 20260901191510 | 22 | 158 | 0.0 | 0.0 | 0.00 | 0.00 | 0.00 | 69 | 1000.5 |
| 20260901191013 | 22 | 177 | 0.0 | 0.0 | 0.00 | 0.00 | 0.00 | 68 | 1000.4 |
| 20260901190510 | 22 | 307 | 0.0 | 0.0 | 0.00 | 0.00 | 0.00 | 68 | 1000.4 |
| 20260901190011 | 22 | 338 | 0.0 | 0.0 | 0.00 | 0.00 | 0.00 | 68 | 1000.4 |
| 20260901185509 | 22 | 338 | 0.0 | 0.0 | 0.00 | 0.00 | 0.00 | 68 | 1000.4 |
| 20260901185012 | 22 | 0 | 0.0 | 0.0 | 0.00 | 0.00 | 0.00 | 68 | 1000.4 |
| 20260901184509 | 22 | 0 | 0.0 | 0.0 | 0.00 | 0.00 | 0.00 | 67 | 1000.4 |
| 20260901184012 | 22 | 0 | 0.0 | 0.0 | 0.00 | 0.00 | 0.00 | 67 | 1000.4 |
| 20260901183509 | 22 | 0 | 0.0 | 0.0 | 0.00 | 0.00 | 0.00 | 67 | 1000.1 |
| 20260901183013 | 22 | 0 | 0.0 | 0.0 | 0.00 | 0.00 | 0.00 | 67 | 1000.2 |
| 20260901182509 | 22 | 0 | 0.0 | 0.0 | 0.00 | 0.00 | 0.00 | 67 | 1000.2 |
| 20260901182012 | 22 | 338 | 0.0 | 0.0 | 0.00 | 0.00 | 0.00 | 67 | 1000.1 |
| 20260901181510 | 22 | 338 | 0.0 | 0.0 | 0.00 | 0.00 | 0.00 | 67 | 1000.1 |
| 20260901181012 | 22 | 338 | 0.0 | 0.0 | 0.00 | 0.00 | 0.00 | 67 | 999.9 |
| 20260901180510 | 22 | 338 | 0.0 | 0.0 | 0.00 | 0.00 | 0.00 | 66 | 999.8 |
| 20260901180009 | 22 | 338 | 0.0 | 0.0 | 0.00 | 0.00 | 0.00 | 66 | 999.7 |
| 20260901175510 | 22 | 338 | 0.0 | 0.0 | 0.00 | 0.00 | 0.00 | 66 | 999.6 |
| 20260901175012 | 22 | 338 | 0.0 | 0.0 | 0.00 | 0.00 | 0.00 | 66 | 999.6 |
| 20260901174510 | 22 | 338 | 0.0 | 3.2 | 0.00 | 0.00 | 0.00 | 66 | 999.5 |
| 20260901174016 | 22 | 359 | 0.0 | 3.2 | 0.00 | 0.00 | 0.00 | 65 | 999.5 |
| 20260901173509 | 22 | 318 | 0.0 | 0.0 | 0.00 | 0.00 | 0.00 | 65 | 999.5 |
| 20260901173012 | 23 | 338 | 0.0 | 0.0 | 0.00 | 0.00 | 0.00 | 65 | 999.4 |
| 20260901172510 | 23 | 120 | 0.0 | 4.8 | 0.00 | 0.00 | 0.00 | 65 | 999.4 |
| 20260901172012 | 23 | 158 | 0.0 | 0.0 | 0.00 | 0.00 | 0.00 | 65 | 999.3 |
| 20260901171509 | 23 | 338 | 0.0 | 0.0 | 0.00 | 0.00 | 0.00 | 65 | 999.4 |
| 20260901171012 | 23 | 0 | 0.0 | 0.0 | 0.00 | 0.00 | 0.00 | 65 | 999.2 |
| 20260901170509 | 23 | 0 | 0.0 | 0.0 | 0.00 | 0.00 | 0.00 | 65 | 999.2 |
| 20260901170010 | 23 | 255 | 0.0 | 0.0 | 0.00 | 0.00 | 0.00 | 64 | 999.1 |
| 20260901165509 | 23 | 158 | 0.0 | 1.6 | 0.00 | 0.00 | 0.00 | 64 | 999.2 |
| 20260901165012 | 23 | 158 | 1.6 | 4.8 | 0.00 | 0.00 | 0.00 | 64 | 999.1 |
| 20260901164509 | 23 | 338 | 0.0 | 0.0 | 0.00 | 0.00 | 0.00 | 64 | 999.3 |
| 20260901164012 | 23 | 158 | 1.6 | 4.8 | 0.00 | 0.00 | 0.00 | 64 | 999.3 |
| 20260901163509 | 23 | 0 | 0.0 | 0.0 | 0.00 | 0.00 | 0.00 | 64 | 999.4 |
| 20260901163012 | 23 | 158 | 0.0 | 0.0 | 0.00 | 0.00 | 0.00 | 64 | 999.3 |
| 20260901162509 | 23 | 159 | 0.0 | 8.0 | 0.00 | 0.00 | 0.00 | 64 | 999.2 |
| 20260901162012 | 23 | 158 | 1.6 | 8.0 | 0.00 | 0.00 | 0.00 | 64 | 999.1 |
| 20260901161510 | 23 | 332 | 0.0 | 0.0 | 0.00 | 0.00 | 0.00 | 64 | 999.1 |
| 20260901161012 | 23 | 158 | 0.0 | 0.0 | 0.00 | 0.00 | 0.00 | 64 | 999.3 |
| 20260901160509 | 23 | 158 | 0.0 | 0.0 | 0.00 | 0.00 | 0.00 | 64 | 999.3 |
| 20260901160009 | 23 | 158 | 1.6 | 9.7 | 0.00 | 0.00 | 0.00 | 64 | 999.2 |
| 20260901155510 | 23 | 338 | 0.0 | 1.6 | 0.00 | 0.00 | 0.00 | 64 | 999.2 |
| 20260901155012 | 23 | 327 | 0.0 | 0.0 | 0.00 | 0.00 | 0.00 | 65 | 999.3 |
| 20260901154509 | 23 | 158 | 0.0 | 3.2 | 0.00 | 0.00 | 0.00 | 65 | 999.1 |
| 20260901154012 | 23 | 158 | 0.0 | 1.6 | 0.00 | 0.00 | 0.00 | 65 | 999.2 |
| 20260901153509 | 23 | 158 | 0.0 | 3.2 | 0.00 | 0.00 | 0.00 | 65 | 999.1 |
| 20260901153012 | 23 | 158 | 0.0 | 0.0 | 0.00 | 0.00 | 0.00 | 65 | 999.2 |
| 20260901152509 | 23 | 315 | 0.0 | 0.0 | 0.00 | 0.00 | 0.00 | 65 | 999.3 |
| 20260901152014 | 23 | 267 | 0.0 | 0.0 | 0.00 | 0.00 | 0.00 | 65 | 999.2 |
| 20260901151509 | 23 | 158 | 0.0 | 0.0 | 0.00 | 0.00 | 0.00 | 65 | 999.2 |
| 20260901151013 | 23 | 158 | 0.0 | 4.8 | 0.00 | 0.00 | 0.00 | 65 | 999.3 |
| 20260901150509 | 23 | 158 | 0.0 | 4.8 | 0.00 | 0.00 | 0.00 | 65 | 999.4 |
| 20260901150009 | 23 | 158 | 0.0 | 1.6 | 0.00 | 0.00 | 0.00 | 65 | 999.3 |
| 20260901145510 | 23 | 158 | 0.0 | 3.2 | 0.00 | 0.00 | 0.00 | 65 | 999.3 |
| 20260901145012 | 23 | 158 | 0.0 | 0.0 | 0.00 | 0.00 | 0.00 | 66 | 999.4 |
| 20260901144509 | 23 | 338 | 0.0 | 0.0 | 0.00 | 0.00 | 0.00 | 65 | 999.4 |
| 20260901144012 | 23 | 338 | 0.0 | 0.0 | 0.00 | 0.00 | 0.00 | 66 | 999.5 |
| 20260901143509 | 23 | 158 | 3.2 | 9.7 | 0.00 | 0.00 | 0.00 | 66 | 999.4 |
| 20260901143012 | 23 | 160 | 1.6 | 12.9 | 0.00 | 0.00 | 0.00 | 66 | 999.4 |
| 20260901142509 | 23 | 162 | 1.6 | 9.7 | 0.00 | 0.00 | 0.00 | 67 | 999.4 |
| 20260901142011 | 23 | 125 | 0.0 | 0.0 | 0.00 | 0.00 | 0.00 | 67 | 999.5 |
| 20260901141509 | 23 | 158 | 0.0 | 0.0 | 0.00 | 0.00 | 0.00 | 67 | 999.4 |
| 20260901141011 | 23 | 158 | 0.0 | 3.2 | 0.00 | 0.00 | 0.00 | 67 | 999.6 |
| 20260901140509 | 23 | 158 | 0.0 | 0.0 | 0.00 | 0.00 | 0.00 | 68 | 999.5 |
| 20260901140010 | 23 | 158 | 1.6 | 4.8 | 0.00 | 0.00 | 0.00 | 67 | 999.5 |
| 20260901135510 | 23 | 325 | 0.0 | 3.2 | 0.00 | 0.00 | 0.00 | 67 | 999.5 |
| 20260901135011 | 23 | 338 | 0.0 | 8.0 | 0.00 | 0.00 | 0.00 | 67 | 999.6 |
| 20260901134509 | 23 | 241 | 0.0 | 0.0 | 0.00 | 0.00 | 0.00 | 67 | 999.6 |
| 20260901134012 | 23 | 158 | 1.6 | 8.0 | 0.00 | 0.00 | 0.00 | 67 | 999.5 |
| 20260901133510 | 23 | 158 | 0.0 | 3.2 | 0.00 | 0.00 | 0.00 | 67 | 999.5 |
| 20260901133011 | 23 | 158 | 1.6 | 3.2 | 0.00 | 0.00 | 0.00 | 67 | 999.5 |
| 20260901132509 | 23 | 161 | 1.6 | 9.7 | 0.00 | 0.00 | 0.00 | 66 | 999.5 |
| 20260901132012 | 23 | 158 | 1.6 | 4.8 | 0.00 | 0.00 | 0.00 | 66 | 999.6 |
| 20260901131510 | 23 | 158 | 1.6 | 9.7 | 0.00 | 0.00 | 0.00 | 66 | 999.6 |
| 20260901131011 | 23 | 158 | 1.6 | 8.0 | 0.00 | 0.00 | 0.00 | 66 | 999.6 |
| 20260901130508 | 23 | 158 | 1.6 | 11.3 | 0.00 | 0.00 | 0.00 | 67 | 999.6 |
| 20260901130009 | 23 | 164 | 3.2 | 9.7 | 0.00 | 0.00 | 0.00 | 67 | 999.7 |
| 20260901125509 | 23 | 164 | 0.0 | 8.0 | 0.00 | 0.00 | 0.00 | 66 | 999.6 |
| 20260901125011 | 23 | 165 | 3.2 | 8.0 | 0.00 | 0.00 | 0.00 | 66 | 999.7 |
| 20260901124509 | 23 | 158 | 1.6 | 8.0 | 0.00 | 0.00 | 0.00 | 67 | 999.6 |
| 20260901124012 | 23 | 160 | 1.6 | 9.7 | 0.00 | 0.00 | 0.00 | 66 | 999.7 |
| 20260901123509 | 23 | 170 | 1.6 | 9.7 | 0.00 | 0.00 | 0.00 | 67 | 999.7 |
| 20260901123011 | 23 | 160 | 0.0 | 8.0 | 0.00 | 0.00 | 0.00 | 66 | 999.8 |
| 20260901122509 | 23 | 150 | 1.6 | 4.8 | 0.00 | 0.00 | 0.00 | 67 | 999.9 |
| 20260901122011 | 23 | 158 | 1.6 | 4.8 | 0.00 | 0.00 | 0.00 | 67 | 999.9 |
| 20260901121509 | 23 | 158 | 1.6 | 8.0 | 0.00 | 0.00 | 0.00 | 67 | 999.7 |
| 20260901121011 | 23 | 338 | 0.0 | 4.8 | 0.00 | 0.00 | 0.00 | 68 | 999.8 |
| 20260901120509 | 23 | 163 | 0.0 | 4.8 | 0.00 | 0.00 | 0.00 | 68 | 999.9 |
| 20260901120008 | 23 | 162 | 1.6 | 8.0 | 0.00 | 0.00 | 0.00 | 67 | 999.9 |
| 20260901115509 | 23 | 163 | 0.0 | 8.0 | 0.00 | 0.00 | 0.00 | 67 | 999.8 |
| 20260901115012 | 23 | 316 | 0.0 | 0.0 | 0.00 | 0.00 | 0.00 | 67 | 999.9 |
| 20260901114509 | 23 | 158 | 0.0 | 3.2 | 0.00 | 0.00 | 0.00 | 67 | 999.9 |
| 20260901114012 | 23 | 158 | 1.6 | 9.7 | 0.00 | 0.00 | 0.00 | 66 | 999.9 |
| 20260901113509 | 23 | 152 | 3.2 | 9.7 | 0.00 | 0.00 | 0.00 | 66 | 1000.0 |
| 20260901113011 | 23 | 164 | 1.6 | 9.7 | 0.00 | 0.00 | 0.00 | 66 | 999.8 |
| 20260901112509 | 23 | 158 | 0.0 | 0.0 | 0.00 | 0.00 | 0.00 | 66 | 999.7 |
| 20260901112011 | 23 | 158 | 1.6 | 8.0 | 0.00 | 0.00 | 0.00 | 65 | 999.9 |
| 20260901111509 | 24 | 161 | 0.0 | 4.8 | 0.00 | 0.00 | 0.00 | 64 | 999.8 |
| 20260901111011 | 24 | 343 | 1.6 | 8.0 | 0.00 | 0.00 | 0.00 | 64 | 999.7 |
| 20260901110509 | 24 | 159 | 3.2 | 9.7 | 0.00 | 0.00 | 0.00 | 64 | 999.6 |
| 20260901110008 | 24 | 158 | 3.2 | 8.0 | 0.00 | 0.00 | 0.00 | 65 | 999.7 |
| 20260901105510 | 24 | 158 | 0.0 | 4.8 | 0.00 | 0.00 | 0.00 | 65 | 999.7 |
| 20260901105011 | 24 | 337 | 1.6 | 11.3 | 0.00 | 0.00 | 0.00 | 65 | 999.8 |
| 20260901104509 | 23 | 170 | 0.0 | 11.3 | 0.00 | 0.00 | 0.00 | 66 | 999.8 |
| 20260901104011 | 23 | 158 | 4.8 | 9.7 | 0.00 | 0.00 | 0.00 | 66 | 999.8 |
| 20260901103509 | 23 | 163 | 1.6 | 9.7 | 0.00 | 0.00 | 0.00 | 66 | 999.9 |
| 20260901103011 | 23 | 192 | 3.2 | 11.3 | 0.00 | 0.00 | 0.00 | 66 | 999.9 |
| 20260901102509 | 23 | 338 | 0.0 | 8.0 | 0.00 | 0.00 | 0.00 | 66 | 1000.0 |
| 20260901102011 | 23 | 158 | 1.6 | 9.7 | 0.00 | 0.00 | 0.00 | 66 | 1000.0 |
| 20260901101509 | 23 | 169 | 3.2 | 9.7 | 0.00 | 0.00 | 0.00 | 66 | 1000.0 |
| 20260901101010 | 23 | 158 | 3.2 | 9.7 | 0.00 | 0.00 | 0.00 | 66 | 1000.0 |
| 20260901100509 | 23 | 158 | 1.6 | 9.7 | 0.00 | 0.00 | 0.00 | 65 | 1000.1 |
| 20260901100010 | 24 | 153 | 1.6 | 9.7 | 0.00 | 0.00 | 0.00 | 65 | 1000.2 |
| 20260901095509 | 24 | 338 | 0.0 | 9.7 | 0.00 | 0.00 | 0.00 | 65 | 1000.0 |
| 20260901095011 | 24 | 161 | 1.6 | 9.7 | 0.00 | 0.00 | 0.00 | 66 | 1000.1 |
| 20260901094509 | 24 | 112 | 0.0 | 0.0 | 0.00 | 0.00 | 0.00 | 68 | 1000.1 |
| 20260901094011 | 24 | 90 | 0.0 | 0.0 | 0.00 | 0.00 | 0.00 | 68 | 1000.1 |
| 20260901093509 | 23 | 158 | 0.0 | 0.0 | 0.00 | 0.00 | 0.00 | 70 | 1000.0 |